Flight Track Log - Related Links

Times and Time Zones

All times are in EDT time to prevent confusion due to time zone crossing. See the AWI3939 flight status page for this flight to view local times or setup timezone preferences in your user account.

Time Position Orientation Groundspeed Altitude Reporting Facility
EDT Latitude Longitude Course Direction KTS MPH feet Rate Location/Type
Sun 05:34:14 PM 43.6500 -79.6167 158° South 10 12 1,000  Level Toronto Center
Sun 05:35:14 PM 43.6167 -79.6333 200° South 170 196 2,800 2,100 Climbing Toronto Center
Sun 05:36:00 PM 43.4332 -79.4890 121° Southeast  Level Estimated
Sun 05:36:14 PM 43.5667 -79.6833 216° Southwest 220 253 5,200  Level Toronto Center
Sun 05:37:00 PM 43.4447 -79.3685 83° East  Level FlightAware Approximate
Sun 05:37:14 PM 43.5167 -79.6167 136° Southeast 250 288 7,100  Level Toronto Center
Sun 05:38:00 PM 43.3627 -79.3236 125° Southeast  Level Estimated
Sun 05:38:14 PM 43.5000 -79.5167 103° East 290 334 7,000  Level Toronto Center
Sun 05:39:00 PM 43.2807 -79.2789 119° Southeast  Level Estimated
Sun 05:39:14 PM 43.5167 -79.3833 80° East 300 345 7,900  Level Toronto Center
Sun 05:40:00 PM 43.1933 -79.2314 158° South  Level Estimated
Sun 05:40:14 PM 43.5167 -79.2667 90° East 320 368 9,900  Level Toronto Center
Sun 05:41:14 PM 43.4833 -79.1333 109° East 350 403 11,200 1,700 Climbing Toronto Center
Sun 05:42:14 PM 43.4500 -78.9833 107° East 380 437 13,300 1,900 Climbing Toronto Center
Sun 05:43:14 PM 43.4000 -78.8833 125° Southeast 390 449 15,000 1,700 Climbing Toronto Center
Sun 05:44:14 PM 43.3333 -78.7333 121° Southeast 400 460 16,700 2,050 Climbing Toronto Center
Sun 05:45:14 PM 43.2833 -78.6000 117° Southeast 400 460 19,100 2,050 Climbing Toronto Center
Sun 05:46:14 PM 43.1833 -78.5333 154° Southeast 380 437 20,800 1,550 Climbing Toronto Center
Sun 05:47:14 PM 43.1000 -78.5167 172° South 370 426 22,200 1,100 Climbing Toronto Center
Sun 05:48:14 PM 42.9667 -78.5000 175° South 390 449 23,000 421 Climbing Toronto Center
Sun 05:49:08 PM 42.8978 -78.4944 177° South 393 452 23,000  Level Cleveland Center
Sun 05:50:08 PM 42.7786 -78.4700 171° South 418 481 23,000  Level Cleveland Center
Sun 05:51:08 PM 42.6614 -78.4431 170° South 430 495 23,000  Level Cleveland Center
Sun 05:52:08 PM 42.5419 -78.4189 172° South 435 501 23,000  Level Cleveland Center
Sun 05:53:08 PM 42.4228 -78.3947 171° South 435 501 23,000  Level Cleveland Center
Sun 05:54:08 PM 42.3075 -78.3681 170° South 429 494 23,000  Level Cleveland Center
Sun 05:55:08 PM 42.1947 -78.3467 172° South 429 494 23,000  Level Cleveland Center
Sun 05:56:08 PM 42.0733 -78.3231 172° South 419 482 23,000  Level Cleveland Center
Sun 05:57:08 PM 41.9644 -78.2961 170° South 408 470 23,000  Level Cleveland Center
Sun 05:58:08 PM 41.8578 -78.2775 173° South 397 457 23,000  Level Cleveland Center
Sun 05:59:08 PM 41.7508 -78.2536 171° South 392 451 23,000  Level Cleveland Center
Sun 06:00:08 PM 41.6442 -78.2325 172° South 392 451 23,000  Level Cleveland Center
Sun 06:01:08 PM 41.5372 -78.2086 171° South 392 451 23,000  Level Cleveland Center
Sun 06:02:08 PM 41.4283 -78.1875 172° South 392 451 23,000  Level Cleveland Center
Sun 06:03:38 PM 41.2811 -78.1569 171° South 384 442 23,000  Level New York Center
Sun 06:04:38 PM 41.1769 -78.1233 166° South 384 442 23,000  Level New York Center
Sun 06:05:39 PM 41.0719 -78.0708 159° South 389 448 23,000  Level New York Center
Sun 06:06:39 PM 40.9708 -78.0186 159° South 394 453 23,000 -508 Level New York Center
Sun 06:07:37 PM 40.8772 -77.9483 150° Southeast 394 453 22,000 -1,322 Descending New York Center
Sun 06:08:37 PM 40.7953 -77.8547 139° Southeast 394 453 20,400 -1,488 Descending New York Center
Sun 06:09:38 PM 40.7153 -77.7642 139° Southeast 389 448 19,000 -694 Descending New York Center
Sun 06:10:38 PM 40.6289 -77.6706 141° Southeast 378 435 19,000  Level New York Center
Sun 06:11:38 PM 40.5389 -77.6042 151° Southeast 371 427 19,000  Level New York Center
Sun 06:12:39 PM 40.4508 -77.5408 151° Southeast 366 421 19,000  Level New York Center
Sun 06:13:39 PM 40.3606 -77.4803 153° Southeast 366 421 19,000  Level New York Center
Sun 06:14:40 PM 40.2683 -77.4142 151° Southeast 366 421 19,000  Level New York Center
Sun 06:15:37 PM 40.1781 -77.3511 152° Southeast 366 421 19,000  Level New York Center
Sun 06:16:38 PM 40.0878 -77.2883 152° Southeast 366 421 19,000  Level New York Center
Sun 06:17:38 PM 39.9992 -77.2286 153° Southeast 366 421 19,000  Level New York Center
Sun 06:18:39 PM 39.9128 -77.1692 152° Southeast 366 421 19,000  Level New York Center
Sun 06:19:40 PM 39.8267 -77.1072 151° Southeast 352 405 19,000 -305 Level New York Center
Sun 06:20:37 PM 39.7481 -77.0542 153° Southeast 359 413 18,400 -1,385 Descending New York Center
Sun 06:21:37 PM 39.6475 -76.9858 152° Southeast 364 419 16,300 -2,089 Descending New York Center
Sun 06:22:52 PM 39.5333 -76.9167 155° Southeast 350 403 13,700 -1,817 Descending Potomac TRACON
Sun 06:23:59 PM 39.4500 -76.8500 148° Southeast 336 387 12,000 -803 Descending Potomac TRACON
Sun 06:24:59 PM 39.3667 -76.8000 155° Southeast 333 383 12,000 -474 Level Potomac TRACON
Sun 06:25:53 PM 39.3000 -76.7500 150° Southeast 332 382 11,100 -950 Descending Potomac TRACON
Sun 06:26:59 PM 39.2000 -76.6833 153° Southeast 310 357 10,100 -524 Descending Potomac TRACON
Sun 06:27:59 PM 39.1333 -76.7167 201° Southwest 285 328 10,000 -150 Descending Potomac TRACON
Sun 06:28:59 PM 39.0667 -76.7833 218° Southwest 284 327 9,800 -1,000 Descending Potomac TRACON
Sun 06:29:59 PM 39.0167 -76.8500 226° Southwest 266 306 8,000 -1,250 Descending Potomac TRACON
Sun 06:30:59 PM 38.9667 -76.9000 218° Southwest 193 222 7,300 -900 Descending Potomac TRACON
Sun 06:31:59 PM 38.9667 -76.9500 270° West 165 190 6,200 -600 Descending Potomac TRACON
Sun 06:32:59 PM 38.9833 -77.0167 288° West 169 194 6,100 -211 Descending Potomac TRACON
Sun 06:33:53 PM 39.0000 -77.0500 303° West 168 193 5,800 -500 Descending Potomac TRACON
Sun 06:34:59 PM 39.0333 -77.1000 311° West 170 196 5,100 -850 Descending Potomac TRACON
Sun 06:35:53 PM 39.0500 -77.1500 293° West 181 208 4,100 -1,053 Descending Potomac TRACON
Sun 06:36:53 PM 39.0333 -77.2000 247° West 170 196 3,100 -500 Descending Potomac TRACON
Sun 06:37:53 PM 38.9833 -77.2167 195° South 204 235 3,100  Level Potomac TRACON

Login

Don't have an account? Register now (free) for customized features, flight alerts, and more!